Time;durP1;ratioP1;P1;durP2;ratioP2;P2;SDS_P1;SDS_P2;PMS_P1;PMS_P2;Temp;Humidity;BMP_temperature;BMP_pressure;BME280_temperature;BME280_humidity;BME280_pressure;Samples;Min_cycle;Max_cycle;Signal;HPM_P1;HPM_P2
2022/05/22 00:03:03;;;;;;;7.37;3.47;;;;;;;12.49;61.54;100158.00;10426953;28;20509;-79
2022/05/22 00:08:05;;;;;;;9.00;2.70;;;;;;;12.48;61.28;100171.19;10427534;28;20449;-79
2022/05/22 00:13:07;;;;;;;8.32;3.25;;;;;;;12.40;61.23;100178.72;10435234;28;20110;-78
2022/05/22 00:18:09;;;;;;;10.13;3.25;;;;;;;12.33;61.31;100174.81;10440000;28;20160;-78
2022/05/22 00:23:11;;;;;;;10.48;2.85;;;;;;;12.19;61.37;100159.06;10438243;28;20179;-79
2022/05/22 00:28:12;;;;;;;6.07;3.00;;;;;;;12.09;61.46;100153.53;10435797;28;20223;-79
2022/05/22 00:33:14;;;;;;;11.68;3.05;;;;;;;12.08;61.70;100167.59;10434699;28;20077;-79
2022/05/22 00:38:16;;;;;;;11.63;3.38;;;;;;;12.09;61.51;100164.03;10432625;28;20041;-79
2022/05/22 00:43:24;;;;;;;8.07;3.00;;;;;;;12.02;61.46;100165.38;10435519;28;20122;-79
2022/05/22 00:48:27;;;;;;;8.90;3.03;;;;;;;11.92;61.59;100172.97;10434704;28;20076;-79
2022/05/22 00:53:32;;;;;;;5.30;2.85;;;;;;;11.78;61.54;100175.59;10435223;28;21332;-79
2022/05/22 00:58:35;;;;;;;12.13;3.30;;;;;;;11.68;62.16;100169.19;10430996;28;20087;-79
2022/05/22 01:03:38;;;;;;;6.90;2.75;;;;;;;11.91;61.85;100152.06;10432273;28;20338;-79
2022/05/22 01:08:40;;;;;;;7.32;2.95;;;;;;;12.01;61.66;100154.03;10430102;28;20151;-79
2022/05/22 01:13:45;;;;;;;6.65;3.33;;;;;;;11.78;61.82;100146.75;10431797;28;20080;-79
2022/05/22 01:18:52;;;;;;;5.38;2.78;;;;;;;11.65;62.55;100137.94;10429966;28;20095;-79
2022/05/22 01:23:55;;;;;;;7.68;3.20;;;;;;;11.78;62.20;100135.44;10429717;28;20099;-79
2022/05/22 01:28:57;;;;;;;7.70;3.28;;;;;;;11.87;62.04;100148.81;10427052;28;20080;-79
2022/05/22 01:33:58;;;;;;;10.10;3.50;;;;;;;11.95;61.88;100146.53;10433614;28;20060;-79
2022/05/22 01:39:00;;;;;;;9.00;3.17;;;;;;;11.96;61.83;100131.66;10431842;28;20138;-79
2022/05/22 01:44:03;;;;;;;6.97;3.05;;;;;;;11.91;61.83;100128.47;10431193;28;20557;-79
2022/05/22 01:49:07;;;;;;;10.02;3.28;;;;;;;11.88;61.90;100126.91;10431167;28;20052;-79
2022/05/22 01:54:09;;;;;;;6.32;2.88;;;;;;;11.78;62.02;100131.03;10432896;28;20056;-79
2022/05/22 01:59:11;;;;;;;8.55;3.03;;;;;;;11.80;61.85;100130.94;10429257;28;20137;-79
2022/05/22 02:04:13;;;;;;;7.60;2.92;;;;;;;11.79;61.89;100130.09;10432860;28;20084;-79
2022/05/22 02:09:16;;;;;;;10.30;3.30;;;;;;;11.88;61.84;100139.16;10436035;28;21101;-79
2022/05/22 02:14:17;;;;;;;6.32;2.88;;;;;;;11.91;61.70;100139.81;10438295;28;20080;-79
2022/05/22 02:19:19;;;;;;;7.85;3.17;;;;;;;11.93;61.46;100137.09;10436965;28;20564;-79
2022/05/22 02:24:21;;;;;;;7.05;2.95;;;;;;;11.82;61.66;100134.31;10436152;28;20064;-79
2022/05/22 02:29:24;;;;;;;5.75;2.92;;;;;;;11.80;61.59;100130.94;10436773;28;20066;-78
2022/05/22 02:34:25;;;;;;;7.20;3.15;;;;;;;11.71;61.65;100111.38;10434786;28;20049;-79
2022/05/22 02:39:27;;;;;;;6.70;2.83;;;;;;;11.59;61.74;100111.28;10425610;28;21143;-79
2022/05/22 02:44:29;;;;;;;10.70;3.42;;;;;;;11.45;61.93;100103.41;10435205;28;20060;-79
2022/05/22 02:49:33;;;;;;;6.53;3.03;;;;;;;11.26;62.37;100091.44;10432574;28;20077;-79
2022/05/22 02:54:34;;;;;;;6.95;3.15;;;;;;;11.19;62.41;100100.56;10431656;28;20502;-79
2022/05/22 02:59:36;;;;;;;5.72;3.03;;;;;;;11.26;62.42;100098.44;10433689;28;20074;-79
2022/05/22 03:04:38;;;;;;;12.60;3.38;;;;;;;11.32;62.20;100092.03;10434147;28;20090;-79
2022/05/22 03:09:41;;;;;;;7.60;3.30;;;;;;;11.32;62.39;100084.16;10431644;28;20211;-79
2022/05/22 03:14:48;;;;;;;7.57;3.35;;;;;;;11.34;62.47;100082.28;10424781;28;20114;-79
2022/05/22 03:19:50;;;;;;;6.68;3.20;;;;;;;11.23;62.27;100083.75;10432578;28;20080;-79
2022/05/22 03:24:52;;;;;;;4.53;2.58;;;;;;;11.31;62.39;100085.94;10431634;28;20053;-80
2022/05/22 03:29:54;;;;;;;8.32;3.30;;;;;;;11.32;62.06;100071.06;10433473;28;20102;-80
2022/05/22 03:34:56;;;;;;;7.75;3.60;;;;;;;11.27;62.30;100066.94;10433749;28;20049;-80
2022/05/22 03:39:58;;;;;;;5.90;3.05;;;;;;;11.13;62.63;100074.78;10433108;28;20064;-80
2022/05/22 03:45:00;;;;;;;7.43;2.95;;;;;;;11.18;62.83;100070.13;10440508;28;20140;-80
2022/05/22 03:50:04;;;;;;;5.22;3.30;;;;;;;11.45;62.28;100072.84;10444767;28;20052;-80
2022/05/22 03:55:10;;;;;;;4.65;3.15;;;;;;;11.54;61.94;100071.44;10442280;28;20139;-80
2022/05/22 04:00:12;;;;;;;6.57;3.10;;;;;;;11.60;62.05;100061.41;10439959;28;20040;-81
2022/05/22 04:05:15;;;;;;;14.32;3.70;;;;;;;11.60;61.41;100060.59;10437562;28;20061;-81
2022/05/22 04:10:17;;;;;;;6.85;2.63;;;;;;;11.63;61.70;100057.75;10437876;28;20421;-80
2022/05/22 04:15:21;;;;;;;5.60;2.80;;;;;;;11.82;61.21;100059.16;10465261;28;20082;-80
2022/05/22 04:20:22;;;;;;;5.60;2.83;;;;;;;12.86;60.32;100040.97;10444976;28;20270;-80
2022/05/22 04:25:24;;;;;;;5.53;2.38;;;;;;;14.65;56.01;100036.91;10442977;28;20452;-80
2022/05/22 04:30:27;;;;;;;6.60;2.47;;;;;;;15.01;54.37;100036.75;10436653;28;20454;-80
2022/05/22 04:35:29;;;;;;;6.05;2.30;;;;;;;16.28;51.65;100031.91;10436680;28;20666;-81
2022/05/22 04:40:31;;;;;;;4.00;2.30;;;;;;;15.86;51.68;100037.06;10436724;28;20104;-81
2022/05/22 04:45:33;;;;;;;6.10;2.50;;;;;;;15.34;52.14;100040.31;10437647;28;20065;-81
2022/05/22 04:50:34;;;;;;;6.32;2.70;;;;;;;15.95;51.83;100038.13;10441424;28;20132;-81
2022/05/22 04:55:37;;;;;;;5.80;2.53;;;;;;;18.16;46.59;100046.47;10445640;28;20057;-81
2022/05/22 05:00:39;;;;;;;5.15;2.22;;;;;;;17.17;48.33;100051.66;10429506;28;20420;-81
2022/05/22 05:05:41;;;;;;;6.55;2.40;;;;;;;20.18;43.01;100020.22;10431030;28;20440;-81
2022/05/22 05:10:45;;;;;;;6.63;2.20;;;;;;;19.32;43.81;100028.59;10429982;28;20057;-82
2022/05/22 05:16:15;;;;;;;3.65;1.92;;;;;;;20.74;41.30;100006.63;10437630;28;20053;-82
2022/05/22 05:21:42;;;;;;;4.85;2.08;;;;;;;19.68;42.45;100004.88;10440432;28;20186;-82
2022/05/22 05:26:44;;;;;;;8.68;2.63;;;;;;;18.28;45.40;100025.06;10440276;28;20096;-82
2022/05/22 05:31:46;;;;;;;6.18;3.08;;;;;;;17.59;46.77;100031.28;10435115;28;20080;-82
2022/05/22 05:36:57;;;;;;;7.07;2.97;;;;;;;16.89;47.96;100025.91;10420651;28;20098;-81
2022/05/22 05:41:59;;;;;;;7.57;3.17;;;;;;;16.47;49.06;100030.31;10439211;28;20171;-82
2022/05/22 05:47:01;;;;;;;6.78;3.10;;;;;;;16.26;49.68;100036.47;10437316;28;20575;-81
2022/05/22 05:52:04;;;;;;;6.97;3.38;;;;;;;15.94;50.67;100026.72;10435839;28;20571;-82
2022/05/22 05:57:22;;;;;;;6.60;2.80;;;;;;;15.72;51.64;100029.41;10440100;28;20107;-82
2022/05/22 06:02:24;;;;;;;7.10;3.10;;;;;;;15.68;52.11;100030.59;10434399;28;20056;-82
2022/05/22 06:07:26;;;;;;;8.98;3.42;;;;;;;15.68;52.47;100016.56;10434339;28;20048;-82
2022/05/22 06:12:28;;;;;;;7.78;3.30;;;;;;;15.92;51.57;100015.47;10436396;28;20076;-81
2022/05/22 06:17:33;;;;;;;6.93;3.60;;;;;;;15.78;51.61;100015.72;10438550;28;20490;-81
2022/05/22 06:22:35;;;;;;;9.80;4.05;;;;;;;15.88;51.26;100008.75;10450976;28;20981;-82
2022/05/22 06:27:38;;;;;;;9.10;3.53;;;;;;;15.91;51.78;100011.16;10434960;28;20434;-80
2022/05/22 06:32:41;;;;;;;11.80;4.22;;;;;;;15.98;51.66;100011.47;10424027;28;20174;-80
2022/05/22 06:37:43;;;;;;;10.98;3.88;;;;;;;16.20;51.19;100014.91;10426515;28;20099;-78
2022/05/22 06:49:15;;;;;;;9.20;3.78;;;;;;;16.26;51.03;99996.91;10423696;28;20086;-79
2022/05/22 06:54:19;;;;;;;8.32;3.40;;;;;;;16.39;51.38;100008.94;10432637;28;20071;-79
2022/05/22 06:59:22;;;;;;;9.80;3.50;;;;;;;16.40;51.63;100009.78;10422948;28;20052;-79
2022/05/22 07:04:24;;;;;;;11.13;3.30;;;;;;;16.69;51.23;100008.25;10416313;28;20053;-79
2022/05/22 07:09:26;;;;;;;6.13;3.05;;;;;;;16.59;50.75;100013.44;10415308;28;20044;-79
2022/05/22 07:14:29;;;;;;;9.30;3.47;;;;;;;16.88;50.99;100005.72;10417387;28;20056;-79
2022/05/22 07:19:34;;;;;;;8.38;3.58;;;;;;;17.23;49.70;100000.91;10417779;28;20797;-79
2022/05/22 07:24:37;;;;;;;6.10;3.10;;;;;;;17.62;49.11;99986.06;10419417;28;20755;-79
2022/05/22 07:29:42;;;;;;;7.63;3.13;;;;;;;18.74;47.19;99976.69;10427113;28;20147;-79
2022/05/22 07:34:47;;;;;;;9.65;3.10;;;;;;;20.43;44.27;99970.84;10425382;28;20052;-79
2022/05/22 07:39:55;;;;;;;8.45;2.97;;;;;;;21.31;42.07;99964.47;10430525;28;20055;-79
2022/05/22 07:44:57;;;;;;;7.38;3.22;;;;;;;22.85;39.47;99951.31;10425529;28;20124;-78
2022/05/22 07:50:32;;;;;;;7.80;3.03;;;;;;;23.08;38.49;99935.41;10424635;28;20111;-79
2022/05/22 07:55:26;;;;;;;8.35;3.65;;;;;;;23.33;37.53;99937.00;10417987;28;20152;-79
2022/05/22 08:00:29;;;;;;;5.50;2.70;;;;;;;23.33;36.07;99927.13;10425189;28;20060;-78
2022/05/22 08:05:31;;;;;;;7.22;3.15;;;;;;;23.72;36.29;99919.13;10423066;28;20139;-78
2022/05/22 08:10:33;;;;;;;7.72;2.88;;;;;;;24.13;35.20;99909.88;10426577;28;20087;-78
2022/05/22 08:15:37;;;;;;;8.75;3.03;;;;;;;23.45;35.52;99907.09;10423412;28;20085;-78
2022/05/22 08:20:42;;;;;;;7.72;3.00;;;;;;;24.61;34.21;99899.78;10423726;28;20095;-78
2022/05/22 08:25:44;;;;;;;8.10;3.08;;;;;;;24.30;34.01;99894.53;10420664;28;20049;-79
2022/05/22 08:30:47;;;;;;;9.88;2.90;;;;;;;25.14;32.62;99891.53;10426354;28;20456;-78
2022/05/22 08:35:51;;;;;;;6.97;3.08;;;;;;;24.47;34.27;99877.31;10429862;28;20059;-78
2022/05/22 08:41:11;;;;;;;6.95;3.00;;;;;;;24.73;33.45;99876.94;10431329;28;20203;-78
2022/05/22 08:46:36;;;;;;;7.32;2.92;;;;;;;25.20;32.23;99874.72;10429239;28;20736;-79
2022/05/22 08:51:49;;;;;;;9.88;3.00;;;;;;;24.82;31.99;99870.47;10429776;28;20497;-78
2022/05/22 09:02:22;;;;;;;10.82;3.20;;;;;;;24.15;32.82;99857.09;10430140;28;20171;-78
2022/05/22 09:07:44;;;;;;;7.22;3.20;;;;;;;24.02;33.24;99862.16;10429180;28;20088;-78
2022/05/22 09:13:38;;;;;;;9.90;3.55;;;;;;;24.67;31.32;99861.59;10431604;28;20488;-78
2022/05/22 09:19:07;;;;;;;10.45;2.65;;;;;;;24.66;29.33;99846.56;10386640;28;20103;-77
2022/05/22 09:24:38;;;;;;;8.85;2.90;;;;;;;24.55;28.68;99844.34;10442855;28;20202;-79
2022/05/22 09:29:58;;;;;;;10.57;2.90;;;;;;;24.54;30.08;99837.31;10431363;28;20049;-79
2022/05/22 09:35:02;;;;;;;;;;;;;;;24.23;29.63;99827.59;10427781;28;20655;-78
2022/05/22 09:40:45;;;;;;;6.90;2.38;;;;;;;24.77;29.41;99828.25;10423518;28;20492;-79
2022/05/22 09:45:57;;;;;;;6.57;2.20;;;;;;;24.96;28.07;99814.28;10331236;28;20077;-79
2022/05/22 09:51:28;;;;;;;8.45;2.10;;;;;;;25.12;28.93;99815.94;10409291;28;20159;-79
2022/05/22 09:57:21;;;;;;;7.18;2.40;;;;;;;25.09;28.57;99809.13;10431770;28;20114;-82
2022/05/22 10:02:58;;;;;;;5.07;1.90;;;;;;;25.10;27.11;99812.63;10280054;28;20065;-80
2022/05/22 10:08:15;;;;;;;6.00;2.00;;;;;;;24.97;27.60;99807.94;10430570;28;20140;-81
2022/05/22 10:13:52;;;;;;;5.88;2.20;;;;;;;25.06;29.58;99803.31;10433950;28;20126;-80
2022/05/22 10:19:30;;;;;;;6.03;2.30;;;;;;;25.15;29.48;99791.47;10430614;28;20576;-79
2022/05/22 10:24:51;;;;;;;6.05;2.00;;;;;;;24.75;28.65;99794.66;10426724;28;20080;-79
2022/05/22 10:30:06;;;;;;;6.20;2.10;;;;;;;24.73;29.37;99805.56;10419333;28;20309;-79
2022/05/22 10:35:45;;;;;;;5.93;1.80;;;;;;;24.97;28.93;99788.38;10413497;28;20052;-80
2022/05/22 10:46:16;;;;;;;5.88;1.80;;;;;;;23.85;30.29;99788.53;10424252;28;20538;-79
2022/05/22 10:51:24;;;;;;;4.15;1.83;;;;;;;23.61;30.61;99770.03;10421883;28;20040;-79
2022/05/22 10:56:31;;;;;;;5.50;1.90;;;;;;;23.54;30.74;99761.06;10422498;28;20076;-80
2022/05/22 11:01:40;;;;;;;5.85;1.85;;;;;;;23.34;30.74;99762.50;10424610;28;20860;-79
2022/05/22 11:07:00;;;;;;;7.72;2.03;;;;;;;22.80;30.04;99758.97;10422777;28;20498;-78
2022/05/22 11:12:12;;;;;;;5.50;1.70;;;;;;;22.93;32.01;99755.75;10437739;28;20128;-79
2022/05/22 11:17:17;;;;;;;5.18;1.70;;;;;;;23.54;31.01;99753.06;10424850;28;21319;-79
2022/05/22 11:22:34;;;;;;;5.38;1.60;;;;;;;23.78;30.18;99747.50;10426668;28;20470;-80
2022/05/22 11:28:01;;;;;;;7.60;2.10;;;;;;;23.99;29.39;99741.47;10431147;28;20057;-80
2022/05/22 11:33:24;;;;;;;5.32;1.90;;;;;;;23.45;30.09;99727.44;10430756;28;20142;-80
2022/05/22 11:38:55;;;;;;;4.85;1.75;;;;;;;23.41;29.53;99721.63;10427515;28;20071;-80
2022/05/22 11:44:06;;;;;;;6.22;1.90;;;;;;;23.56;29.20;99710.97;10429237;28;20049;-80
2022/05/22 11:49:34;;;;;;;7.72;1.92;;;;;;;23.59;30.71;99699.97;10423657;28;20088;-80
2022/05/22 11:54:47;;;;;;;5.20;1.67;;;;;;;23.84;29.37;99689.88;10437891;28;20106;-81
2022/05/22 12:00:08;;;;;;;5.07;1.90;;;;;;;23.58;32.34;99687.59;10427087;28;20049;-80
2022/05/22 12:05:22;;;;;;;6.68;1.77;;;;;;;23.43;31.02;99690.22;10420448;28;20095;-81
2022/05/22 12:10:34;;;;;;;4.93;1.92;;;;;;;23.10;32.38;99686.16;10432927;28;20095;-80
2022/05/22 12:15:48;;;;;;;4.30;1.60;;;;;;;22.67;32.50;99686.69;10433678;28;20061;-80
2022/05/22 12:21:06;;;;;;;5.43;2.00;;;;;;;23.16;31.72;99680.09;10428744;28;20095;-81
2022/05/22 12:26:08;;;;;;;3.25;1.52;;;;;;;23.03;33.13;99677.19;10433542;28;20294;-80
2022/05/22 12:31:30;;;;;;;3.90;1.60;;;;;;;22.58;33.01;99655.75;10432544;28;20136;-80
2022/05/22 12:36:33;;;;;;;5.10;1.70;;;;;;;23.06;33.87;99634.16;10448581;28;20044;-80
2022/05/22 12:41:40;;;;;;;4.85;1.63;;;;;;;23.32;30.83;99631.09;10428490;28;20059;-81
2022/05/22 12:46:42;;;;;;;5.05;1.60;;;;;;;23.39;31.69;99622.19;10428247;28;20049;-80
2022/05/22 12:51:56;;;;;;;5.45;1.80;;;;;;;23.39;34.48;99624.03;10431724;28;20055;-80
2022/05/22 12:57:10;;;;;;;4.50;1.67;;;;;;;23.70;32.25;99621.25;10436482;28;20060;-80
2022/05/22 13:02:35;;;;;;;3.97;1.60;;;;;;;23.75;30.85;99619.69;10427298;28;20697;-80
2022/05/22 13:07:38;;;;;;;5.45;1.63;;;;;;;23.83;31.56;99618.78;10429044;28;20057;-80
2022/05/22 13:12:43;;;;;;;7.10;1.63;;;;;;;23.77;31.62;99607.00;10434724;28;20477;-80
2022/05/22 13:17:51;;;;;;;4.97;1.70;;;;;;;23.70;30.22;99603.38;10431586;28;20084;-80
2022/05/22 13:23:21;;;;;;;9.05;2.13;;;;;;;23.71;31.18;99602.38;10432680;28;20060;-81
2022/05/22 13:28:48;;;;;;;4.00;1.75;;;;;;;24.02;30.69;99588.84;10432027;28;20045;-81
2022/05/22 13:34:15;;;;;;;5.38;1.75;;;;;;;24.26;30.76;99586.72;10426198;28;20102;-80
2022/05/22 13:39:24;;;;;;;4.03;1.60;;;;;;;23.62;30.54;99578.59;10429442;28;20063;-80
2022/05/22 13:45:05;;;;;;;;;;;;;;;23.66;31.28;99579.91;10434188;28;20099;-81
2022/05/22 13:55:48;;;;;;;3.60;1.73;;;;;;;23.96;32.50;99577.03;10418805;28;20136;-78
2022/05/22 14:00:54;;;;;;;5.38;1.95;;;;;;;24.19;31.71;99569.75;10419138;28;20085;-78
2022/05/22 14:06:02;;;;;;;7.15;1.73;;;;;;;23.86;30.72;99565.81;10428705;28;20103;-78
2022/05/22 14:11:25;;;;;;;4.25;1.70;;;;;;;23.63;30.66;99562.44;10431275;28;20167;-78
2022/05/22 14:16:38;;;;;;;3.90;1.65;;;;;;;23.59;29.88;99546.94;10428845;28;20085;-78
2022/05/22 14:21:43;;;;;;;6.85;1.90;;;;;;;23.96;30.59;99542.31;10433442;28;20049;-79
2022/05/22 14:26:48;;;;;;;3.53;1.52;;;;;;;23.86;31.59;99540.97;10430127;28;20941;-78
2022/05/22 14:31:52;;;;;;;5.32;1.85;;;;;;;23.61;30.10;99540.44;10427619;28;20103;-78
2022/05/22 14:37:00;;;;;;;5.28;1.80;;;;;;;23.66;31.07;99538.00;10427849;28;20475;-78
2022/05/22 14:42:04;;;;;;;6.07;1.85;;;;;;;23.41;31.23;99532.13;10427822;28;20053;-78
2022/05/22 14:47:06;;;;;;;6.45;1.70;;;;;;;23.71;31.66;99532.97;10430122;28;20412;-79
2022/05/22 14:52:18;;;;;;;5.45;1.80;;;;;;;23.93;32.22;99531.19;10430811;28;20052;-78
2022/05/22 14:57:26;;;;;;;5.72;1.95;;;;;;;24.03;32.28;99526.38;10444270;28;20063;-78
2022/05/22 15:02:53;;;;;;;4.25;1.65;;;;;;;24.25;30.69;99523.59;10429326;28;20172;-79
2022/05/22 15:07:57;;;;;;;4.85;1.70;;;;;;;24.02;29.52;99516.72;10426113;28;20568;-78
2022/05/22 15:13:03;;;;;;;3.08;1.58;;;;;;;24.09;29.35;99514.97;10425827;28;20569;-78
2022/05/22 15:18:16;;;;;;;4.60;1.60;;;;;;;24.32;28.98;99515.66;10422398;28;20607;-79
2022/05/22 15:28:43;;;;;;;4.00;1.65;;;;;;;24.42;30.68;99504.63;10423885;28;20088;-79
2022/05/22 15:33:49;;;;;;;4.97;1.60;;;;;;;24.68;30.63;99502.22;10425447;28;20049;-79
2022/05/22 15:38:53;;;;;;;4.60;1.80;;;;;;;24.79;30.59;99493.72;10425948;28;20637;-79
2022/05/22 15:44:14;;;;;;;7.35;2.08;;;;;;;24.62;30.42;99494.94;10423826;28;20203;-79
2022/05/22 15:54:41;;;;;;;7.18;1.70;;;;;;;24.24;31.27;99489.88;10424413;28;20717;-79
2022/05/22 15:59:44;;;;;;;5.32;1.60;;;;;;;24.41;29.99;99470.91;10424869;28;20123;-79
2022/05/22 16:04:46;;;;;;;4.18;1.55;;;;;;;24.36;30.70;99476.00;10424677;28;20821;-79
2022/05/22 16:09:48;;;;;;;6.32;1.88;;;;;;;24.04;32.36;99463.91;10424241;28;20053;-79
2022/05/22 16:14:50;;;;;;;4.90;1.70;;;;;;;23.98;31.78;99454.81;10421562;28;20167;-79
2022/05/22 16:19:57;;;;;;;4.85;1.70;;;;;;;23.75;32.41;99442.63;10417286;28;20052;-79
2022/05/22 16:25:03;;;;;;;4.60;1.70;;;;;;;23.85;33.26;99432.47;10419076;28;20057;-78
2022/05/22 16:30:07;;;;;;;4.70;1.77;;;;;;;23.85;34.73;99425.28;10420828;28;20116;-79
2022/05/22 16:35:13;;;;;;;3.47;1.50;;;;;;;23.81;31.62;99421.34;10418901;28;20044;-79
2022/05/22 16:40:16;;;;;;;4.07;1.60;;;;;;;23.64;33.44;99414.56;10423296;28;20486;-79
2022/05/22 16:45:18;;;;;;;6.55;1.80;;;;;;;23.62;33.92;99415.75;10418712;28;20049;-78
2022/05/22 16:55:47;;;;;;;5.13;1.80;;;;;;;23.73;33.16;99400.09;10424116;28;20048;-78
2022/05/22 17:00:50;;;;;;;5.22;1.83;;;;;;;23.84;35.04;99398.78;10420144;28;20063;-78
2022/05/22 17:05:56;;;;;;;4.60;1.70;;;;;;;23.83;34.88;99399.78;10428575;28;20552;-78
2022/05/22 17:11:01;;;;;;;6.10;1.88;;;;;;;23.82;34.42;99398.94;10429818;28;20060;-78
2022/05/22 17:16:05;;;;;;;5.22;1.63;;;;;;;23.74;36.25;99393.72;10427443;28;20142;-79
2022/05/22 17:21:07;;;;;;;4.15;1.70;;;;;;;23.76;36.68;99394.34;10432721;28;20049;-78
2022/05/22 17:26:12;;;;;;;5.90;1.55;;;;;;;23.78;35.14;99389.66;10428590;28;20056;-78
2022/05/22 17:31:13;;;;;;;4.60;1.60;;;;;;;23.64;35.41;99387.84;10427612;28;20084;-79
2022/05/22 17:36:23;;;;;;;4.53;1.60;;;;;;;23.52;36.78;99376.00;10422419;28;20570;-78
2022/05/22 17:41:27;;;;;;;8.38;1.90;;;;;;;23.37;37.21;99369.88;10428262;28;20495;-79
2022/05/22 17:46:29;;;;;;;14.68;2.20;;;;;;;23.21;37.63;99375.38;10430717;28;20088;-78
2022/05/22 17:52:11;;;;;;;13.10;2.10;;;;;;;23.04;37.82;99372.09;10418178;28;20459;-79
2022/05/22 17:57:18;;;;;;;7.28;1.80;;;;;;;22.96;38.15;99368.69;10426423;28;20251;-81
2022/05/22 18:02:23;;;;;;;3.22;1.60;;;;;;;22.91;38.60;99360.41;10434922;28;20053;-82
2022/05/22 18:07:27;;;;;;;4.63;1.80;;;;;;;22.85;38.36;99359.31;10433472;28;20052;-81
2022/05/22 18:17:50;;;;;;;4.95;1.90;;;;;;;22.51;35.29;99349.16;10434527;28;20178;-81
2022/05/22 18:22:58;;;;;;;2.40;1.35;;;;;;;22.43;35.47;99345.75;10432375;28;20183;-81
2022/05/22 18:28:23;;;;;;;4.97;1.77;;;;;;;22.19;36.01;99343.28;10432210;28;20106;-81
2022/05/22 18:33:28;;;;;;;6.65;2.10;;;;;;;21.96;36.31;99342.44;10426979;28;20040;-82
2022/05/22 18:38:30;;;;;;;3.88;1.85;;;;;;;21.66;37.41;99339.66;10430864;28;20049;-81
2022/05/22 18:43:36;;;;;;;4.53;1.83;;;;;;;21.51;38.19;99336.09;10428850;28;20576;-80
2022/05/22 18:48:43;;;;;;;5.82;2.10;;;;;;;21.19;39.19;99346.06;10432502;28;20457;-80
2022/05/22 18:53:46;;;;;;;7.15;2.20;;;;;;;21.07;39.70;99345.59;10424135;28;20061;-81
2022/05/22 18:58:51;;;;;;;5.95;2.17;;;;;;;20.80;40.15;99340.72;10432688;28;20102;-80
2022/05/22 19:03:55;;;;;;;6.00;2.13;;;;;;;20.56;40.42;99344.22;10431418;28;20175;-80
2022/05/22 19:08:57;;;;;;;10.18;3.00;;;;;;;20.30;40.98;99330.31;10431870;28;20671;-79
2022/05/22 19:14:04;;;;;;;7.82;2.55;;;;;;;20.19;41.38;99331.47;10428468;28;20481;-80
2022/05/22 19:19:12;;;;;;;5.57;2.10;;;;;;;20.05;41.90;99342.78;10427665;28;20061;-79
2022/05/22 19:24:16;;;;;;;7.78;2.35;;;;;;;19.92;41.93;99352.22;10427536;28;20150;-79
2022/05/22 19:29:23;;;;;;;7.90;2.30;;;;;;;19.79;43.08;99355.34;10425876;28;20147;-79
2022/05/22 19:34:30;;;;;;;5.97;2.20;;;;;;;19.67;43.51;99361.94;10426703;28;20142;-80
2022/05/22 19:39:32;;;;;;;4.43;2.03;;;;;;;19.28;43.66;99366.97;10429588;28;20064;-79
2022/05/22 19:44:43;;;;;;;7.05;2.67;;;;;;;19.12;44.34;99366.91;10431754;28;20575;-79
2022/05/22 19:49:48;;;;;;;8.63;2.25;;;;;;;18.77;45.06;99366.22;10431530;28;20055;-79
2022/05/22 20:00:17;;;;;;;6.93;2.50;;;;;;;18.66;45.43;99367.31;10428442;28;20128;-79
2022/05/22 20:05:19;;;;;;;6.25;2.40;;;;;;;18.56;45.70;99366.59;10430075;28;20377;-79
2022/05/22 20:10:21;;;;;;;6.88;2.50;;;;;;;18.33;46.03;99363.63;10428489;28;20045;-80
2022/05/22 20:15:22;;;;;;;6.68;2.28;;;;;;;18.11;46.60;99361.44;10430256;28;20045;-80
2022/05/22 20:20:24;;;;;;;4.97;2.10;;;;;;;18.03;46.97;99365.81;10429820;28;21122;-79
2022/05/22 20:25:27;;;;;;;4.38;2.33;;;;;;;17.97;46.68;99363.78;10427670;28;20084;-80
2022/05/22 20:30:31;;;;;;;5.40;2.17;;;;;;;17.70;47.06;99359.41;10430233;28;20112;-79
2022/05/22 20:35:33;;;;;;;6.28;2.38;;;;;;;17.75;47.77;99355.31;10429947;28;20134;-79
2022/05/22 20:40:38;;;;;;;7.88;3.00;;;;;;;17.60;49.33;99351.53;10432934;28;20164;-79
2022/05/22 20:45:40;;;;;;;5.05;2.65;;;;;;;17.33;49.83;99338.34;10433380;28;20080;-79
2022/05/22 20:50:42;;;;;;;6.05;2.58;;;;;;;17.34;49.41;99337.38;10434682;28;20084;-79
2022/05/22 21:01:05;;;;;;;;;;;;;;;16.40;51.51;99318.28;10437258;28;20171;-79
2022/05/22 21:06:08;;;;;;;6.97;2.70;;;;;;;16.66;51.22;99327.25;10436710;28;19928;-79
2022/05/22 21:11:10;;;;;;;5.20;2.65;;;;;;;16.85;50.99;99316.63;10436721;28;20045;-79
2022/05/22 21:16:17;;;;;;;10.07;2.67;;;;;;;16.88;51.43;99318.94;10434052;28;20084;-79
2022/05/22 21:21:19;;;;;;;6.45;2.72;;;;;;;16.88;50.97;99313.66;10434929;28;20080;-79
2022/05/22 21:31:44;;;;;;;9.02;3.08;;;;;;;16.65;51.55;99318.50;10443082;28;20701;-79
2022/05/22 21:36:48;;;;;;;7.45;3.03;;;;;;;16.77;50.99;99322.59;10440284;28;20049;-79
2022/05/22 21:41:50;;;;;;;10.25;3.35;;;;;;;16.74;51.23;99317.63;10439615;28;20060;-79
2022/05/22 21:46:52;;;;;;;7.22;2.60;;;;;;;16.56;51.65;99313.25;10455683;28;20491;-79
2022/05/22 21:51:55;;;;;;;7.97;2.95;;;;;;;16.67;51.58;99307.81;10439088;28;20491;-80
2022/05/22 21:56:59;;;;;;;6.95;2.90;;;;;;;16.45;52.37;99311.63;10438412;28;20057;-79
2022/05/22 22:02:01;;;;;;;6.57;3.00;;;;;;;16.53;52.24;99303.81;10437213;28;20149;-79
2022/05/22 22:07:03;;;;;;;7.20;3.42;;;;;;;16.38;52.43;99304.38;10437019;28;20163;-80
2022/05/22 22:12:06;;;;;;;7.45;3.20;;;;;;;16.29;52.96;99306.06;10437031;28;20040;-80
2022/05/22 22:17:09;;;;;;;7.40;3.20;;;;;;;16.30;53.18;99301.63;10436657;28;20494;-80
2022/05/22 22:22:13;;;;;;;6.63;3.17;;;;;;;16.19;53.73;99295.56;10438371;28;20057;-79
2022/05/22 22:27:15;;;;;;;6.75;3.08;;;;;;;16.10;54.26;99285.84;10436754;28;20085;-79
2022/05/22 22:32:19;;;;;;;7.80;3.25;;;;;;;15.89;54.38;99276.44;10451891;28;20068;-80
2022/05/22 22:37:21;;;;;;;6.45;3.17;;;;;;;15.93;54.78;99270.75;10432595;28;20135;-80
2022/05/22 22:42:23;;;;;;;6.75;3.30;;;;;;;15.92;54.92;99268.22;10437045;28;20118;-80
2022/05/22 22:47:26;;;;;;;5.93;2.97;;;;;;;15.95;55.31;99273.25;10436084;28;20076;-79
2022/05/22 22:52:29;;;;;;;8.00;3.10;;;;;;;15.89;55.22;99279.09;10435394;28;20048;-79
2022/05/22 23:02:53;;;;;;;8.60;3.40;;;;;;;15.16;56.94;99277.78;10434038;28;20490;-79
2022/05/22 23:07:54;;;;;;;7.90;3.03;;;;;;;15.35;56.60;99272.53;10436430;28;20092;-79
2022/05/22 23:12:56;;;;;;;6.63;3.22;;;;;;;15.55;56.54;99256.78;10432528;28;20559;-79
2022/05/22 23:18:02;;;;;;;9.02;3.35;;;;;;;15.20;56.94;99238.84;10434937;28;20081;-79
2022/05/22 23:23:04;;;;;;;7.70;3.30;;;;;;;15.22;57.38;99221.94;10428022;28;20044;-78
2022/05/22 23:28:10;;;;;;;5.82;2.90;;;;;;;15.48;56.47;99222.19;10429280;28;20044;-78
2022/05/22 23:33:12;;;;;;;6.22;3.00;;;;;;;15.56;56.97;99210.97;10431487;28;20041;-78
2022/05/22 23:38:17;;;;;;;6.28;3.28;;;;;;;15.34;56.95;99193.63;10434581;28;20084;-79
2022/05/22 23:43:21;;;;;;;5.70;3.22;;;;;;;15.33;56.87;99192.81;10426679;28;20146;-78
2022/05/22 23:48:23;;;;;;;7.78;3.35;;;;;;;15.42;56.58;99209.59;10429582;28;20074;-78
2022/05/22 23:53:25;;;;;;;10.95;3.90;;;;;;;15.40;56.21;99201.00;10426831;28;20118;-78
2022/05/22 23:58:27;;;;;;;6.60;3.42;;;;;;;15.10;56.93;99186.13;10426582;28;20091;-78
